sensor_id;sensor_type;location;lat;lon;timestamp;P1;durP1;ratioP1;P2;durP2;ratioP2
8252;SDS011;61313;48.396;10.008;2023-06-10T00:01:23;9.10;;;8.30;;
8252;SDS011;61313;48.396;10.008;2023-06-10T00:03:49;8.90;;;7.67;;
8252;SDS011;61313;48.396;10.008;2023-06-10T00:06:16;8.53;;;7.70;;
8252;SDS011;61313;48.396;10.008;2023-06-10T00:08:42;22.63;;;8.60;;
8252;SDS011;61313;48.396;10.008;2023-06-10T00:11:07;8.10;;;7.40;;
8252;SDS011;61313;48.396;10.008;2023-06-10T00:13:33;8.67;;;7.97;;
8252;SDS011;61313;48.396;10.008;2023-06-10T00:15:58;8.30;;;7.60;;
8252;SDS011;61313;48.396;10.008;2023-06-10T00:18:24;8.70;;;7.90;;
8252;SDS011;61313;48.396;10.008;2023-06-10T00:20:51;8.07;;;7.00;;
8252;SDS011;61313;48.396;10.008;2023-06-10T00:23:20;8.37;;;7.50;;
8252;SDS011;61313;48.396;10.008;2023-06-10T00:25:46;10.17;;;7.90;;
8252;SDS011;61313;48.396;10.008;2023-06-10T00:28:11;8.67;;;7.87;;
8252;SDS011;61313;48.396;10.008;2023-06-10T00:30:36;8.47;;;7.70;;
8252;SDS011;61313;48.396;10.008;2023-06-10T00:33:02;7.20;;;6.60;;
8252;SDS011;61313;48.396;10.008;2023-06-10T00:35:27;8.20;;;7.40;;
8252;SDS011;61313;48.396;10.008;2023-06-10T00:37:52;8.00;;;7.20;;
8252;SDS011;61313;48.396;10.008;2023-06-10T00:40:18;8.57;;;7.00;;
8252;SDS011;61313;48.396;10.008;2023-06-10T00:42:43;10.27;;;7.60;;
8252;SDS011;61313;48.396;10.008;2023-06-10T00:45:09;6.77;;;6.23;;
8252;SDS011;61313;48.396;10.008;2023-06-10T00:47:34;10.53;;;8.13;;
8252;SDS011;61313;48.396;10.008;2023-06-10T00:50:00;7.43;;;6.73;;
8252;SDS011;61313;48.396;10.008;2023-06-10T00:52:27;7.40;;;6.70;;
8252;SDS011;61313;48.396;10.008;2023-06-10T00:54:53;7.63;;;6.90;;
8252;SDS011;61313;48.396;10.008;2023-06-10T00:57:19;8.70;;;7.00;;
8252;SDS011;61313;48.396;10.008;2023-06-10T00:59:47;9.30;;;7.03;;
8252;SDS011;61313;48.396;10.008;2023-06-10T01:02:13;9.40;;;8.37;;
8252;SDS011;61313;48.396;10.008;2023-06-10T01:04:39;6.20;;;5.70;;
8252;SDS011;61313;48.396;10.008;2023-06-10T01:07:39;7.07;;;6.47;;
8252;SDS011;61313;48.396;10.008;2023-06-10T01:10:11;10.60;;;7.90;;
8252;SDS011;61313;48.396;10.008;2023-06-10T01:13:02;7.73;;;7.03;;
8252;SDS011;61313;48.396;10.008;2023-06-10T01:15:31;6.77;;;6.27;;
8252;SDS011;61313;48.396;10.008;2023-06-10T01:17:58;7.63;;;6.93;;
8252;SDS011;61313;48.396;10.008;2023-06-10T01:20:26;7.30;;;6.70;;
8252;SDS011;61313;48.396;10.008;2023-06-10T01:22:56;8.03;;;7.33;;
8252;SDS011;61313;48.396;10.008;2023-06-10T01:25:23;8.03;;;7.23;;
8252;SDS011;61313;48.396;10.008;2023-06-10T01:28:04;7.80;;;7.00;;
8252;SDS011;61313;48.396;10.008;2023-06-10T01:33:33;8.87;;;8.07;;
8252;SDS011;61313;48.396;10.008;2023-06-10T01:36:02;11.03;;;6.77;;
8252;SDS011;61313;48.396;10.008;2023-06-10T01:38:32;7.73;;;6.80;;
8252;SDS011;61313;48.396;10.008;2023-06-10T01:41:01;7.73;;;7.03;;
8252;SDS011;61313;48.396;10.008;2023-06-10T01:43:28;8.83;;;8.03;;
8252;SDS011;61313;48.396;10.008;2023-06-10T01:45:53;8.53;;;7.73;;
8252;SDS011;61313;48.396;10.008;2023-06-10T01:48:19;9.53;;;7.37;;
8252;SDS011;61313;48.396;10.008;2023-06-10T01:50:44;10.70;;;8.63;;
8252;SDS011;61313;48.396;10.008;2023-06-10T01:53:10;8.30;;;7.57;;
8252;SDS011;61313;48.396;10.008;2023-06-10T01:55:35;7.40;;;6.73;;
8252;SDS011;61313;48.396;10.008;2023-06-10T01:58:00;10.53;;;7.40;;
8252;SDS011;61313;48.396;10.008;2023-06-10T02:00:26;8.07;;;7.37;;
8252;SDS011;61313;48.396;10.008;2023-06-10T02:02:51;9.40;;;8.40;;
8252;SDS011;61313;48.396;10.008;2023-06-10T02:05:17;9.90;;;7.57;;
8252;SDS011;61313;48.396;10.008;2023-06-10T02:07:43;8.00;;;7.30;;
8252;SDS011;61313;48.396;10.008;2023-06-10T02:10:08;8.37;;;7.33;;
8252;SDS011;61313;48.396;10.008;2023-06-10T02:12:34;8.93;;;8.13;;
8252;SDS011;61313;48.396;10.008;2023-06-10T02:14:59;9.30;;;8.40;;
8252;SDS011;61313;48.396;10.008;2023-06-10T02:17:24;8.50;;;7.63;;
8252;SDS011;61313;48.396;10.008;2023-06-10T02:19:51;8.17;;;7.33;;
8252;SDS011;61313;48.396;10.008;2023-06-10T02:22:20;8.73;;;7.13;;
8252;SDS011;61313;48.396;10.008;2023-06-10T02:24:46;9.00;;;8.10;;
8252;SDS011;61313;48.396;10.008;2023-06-10T02:27:12;8.27;;;7.43;;
8252;SDS011;61313;48.396;10.008;2023-06-10T02:29:38;9.33;;;8.50;;
8252;SDS011;61313;48.396;10.008;2023-06-10T02:32:03;10.03;;;8.20;;
8252;SDS011;61313;48.396;10.008;2023-06-10T02:34:29;8.87;;;7.97;;
8252;SDS011;61313;48.396;10.008;2023-06-10T02:36:54;15.70;;;8.57;;
8252;SDS011;61313;48.396;10.008;2023-06-10T02:39:21;10.43;;;7.40;;
8252;SDS011;61313;48.396;10.008;2023-06-10T02:41:47;8.87;;;8.07;;
8252;SDS011;61313;48.396;10.008;2023-06-10T02:44:12;14.60;;;8.97;;
8252;SDS011;61313;48.396;10.008;2023-06-10T02:46:38;12.17;;;9.70;;
8252;SDS011;61313;48.396;10.008;2023-06-10T02:49:03;8.43;;;7.70;;
8252;SDS011;61313;48.396;10.008;2023-06-10T02:51:28;8.53;;;7.77;;
8252;SDS011;61313;48.396;10.008;2023-06-10T02:53:54;9.10;;;7.93;;
8252;SDS011;61313;48.396;10.008;2023-06-10T02:56:19;10.20;;;7.30;;
8252;SDS011;61313;48.396;10.008;2023-06-10T02:58:45;9.87;;;8.87;;
8252;SDS011;61313;48.396;10.008;2023-06-10T03:01:10;10.63;;;8.67;;
8252;SDS011;61313;48.396;10.008;2023-06-10T03:03:36;9.43;;;8.30;;
8252;SDS011;61313;48.396;10.008;2023-06-10T03:06:05;14.77;;;9.67;;
8252;SDS011;61313;48.396;10.008;2023-06-10T03:08:31;9.50;;;8.60;;
8252;SDS011;61313;48.396;10.008;2023-06-10T03:10:56;11.80;;;8.27;;
8252;SDS011;61313;48.396;10.008;2023-06-10T03:13:23;11.53;;;8.77;;
8252;SDS011;61313;48.396;10.008;2023-06-10T03:15:49;11.77;;;9.37;;
8252;SDS011;61313;48.396;10.008;2023-06-10T03:18:14;8.27;;;7.57;;
8252;SDS011;61313;48.396;10.008;2023-06-10T03:20:40;10.37;;;9.37;;
8252;SDS011;61313;48.396;10.008;2023-06-10T03:23:05;9.20;;;8.40;;
8252;SDS011;61313;48.396;10.008;2023-06-10T03:25:33;9.17;;;8.13;;
8252;SDS011;61313;48.396;10.008;2023-06-10T03:27:59;9.10;;;8.07;;
8252;SDS011;61313;48.396;10.008;2023-06-10T03:30:24;14.33;;;8.33;;
8252;SDS011;61313;48.396;10.008;2023-06-10T03:32:50;12.60;;;8.53;;
8252;SDS011;61313;48.396;10.008;2023-06-10T03:35:15;11.63;;;9.17;;
8252;SDS011;61313;48.396;10.008;2023-06-10T03:37:42;12.30;;;8.77;;
8252;SDS011;61313;48.396;10.008;2023-06-10T03:40:07;9.23;;;8.10;;
8252;SDS011;61313;48.396;10.008;2023-06-10T03:42:34;8.43;;;7.63;;
8252;SDS011;61313;48.396;10.008;2023-06-10T03:44:59;10.20;;;8.50;;
8252;SDS011;61313;48.396;10.008;2023-06-10T03:47:25;7.83;;;7.03;;
8252;SDS011;61313;48.396;10.008;2023-06-10T03:49:50;8.60;;;7.90;;
8252;SDS011;61313;48.396;10.008;2023-06-10T03:52:16;9.93;;;8.93;;
8252;SDS011;61313;48.396;10.008;2023-06-10T03:54:42;14.37;;;8.60;;
8252;SDS011;61313;48.396;10.008;2023-06-10T03:57:08;13.33;;;8.80;;
8252;SDS011;61313;48.396;10.008;2023-06-10T03:59:33;18.37;;;9.97;;
8252;SDS011;61313;48.396;10.008;2023-06-10T04:01:59;16.90;;;9.00;;
8252;SDS011;61313;48.396;10.008;2023-06-10T04:04:25;8.90;;;8.00;;
8252;SDS011;61313;48.396;10.008;2023-06-10T04:06:50;9.00;;;7.90;;
8252;SDS011;61313;48.396;10.008;2023-06-10T04:09:16;10.77;;;8.00;;
8252;SDS011;61313;48.396;10.008;2023-06-10T04:11:42;10.60;;;8.93;;
8252;SDS011;61313;48.396;10.008;2023-06-10T04:14:07;16.73;;;8.50;;
8252;SDS011;61313;48.396;10.008;2023-06-10T04:16:33;14.97;;;7.90;;
8252;SDS011;61313;48.396;10.008;2023-06-10T04:19:00;10.57;;;8.40;;
8252;SDS011;61313;48.396;10.008;2023-06-10T04:21:26;9.20;;;8.23;;
8252;SDS011;61313;48.396;10.008;2023-06-10T04:23:52;17.30;;;9.10;;
8252;SDS011;61313;48.396;10.008;2023-06-10T04:26:17;10.00;;;8.17;;
8252;SDS011;61313;48.396;10.008;2023-06-10T04:28:43;7.97;;;7.27;;
8252;SDS011;61313;48.396;10.008;2023-06-10T04:31:09;9.40;;;7.80;;
8252;SDS011;61313;48.396;10.008;2023-06-10T04:33:34;8.73;;;7.83;;
8252;SDS011;61313;48.396;10.008;2023-06-10T04:36:00;7.87;;;7.13;;
8252;SDS011;61313;48.396;10.008;2023-06-10T04:38:25;9.70;;;8.80;;
8252;SDS011;61313;48.396;10.008;2023-06-10T04:40:51;8.40;;;7.60;;
8252;SDS011;61313;48.396;10.008;2023-06-10T04:43:17;9.50;;;7.60;;
8252;SDS011;61313;48.396;10.008;2023-06-10T04:45:42;14.03;;;8.73;;
8252;SDS011;61313;48.396;10.008;2023-06-10T04:48:11;17.80;;;9.13;;
8252;SDS011;61313;48.396;10.008;2023-06-10T04:50:37;16.10;;;8.60;;
8252;SDS011;61313;48.396;10.008;2023-06-10T04:53:03;9.00;;;8.10;;
8252;SDS011;61313;48.396;10.008;2023-06-10T04:55:29;10.50;;;8.10;;
8252;SDS011;61313;48.396;10.008;2023-06-10T04:57:54;8.80;;;7.90;;
8252;SDS011;61313;48.396;10.008;2023-06-10T05:00:20;8.50;;;7.60;;
8252;SDS011;61313;48.396;10.008;2023-06-10T05:02:46;9.17;;;8.37;;
8252;SDS011;61313;48.396;10.008;2023-06-10T05:05:15;15.53;;;9.70;;
8252;SDS011;61313;48.396;10.008;2023-06-10T05:07:41;9.80;;;8.80;;
8252;SDS011;61313;48.396;10.008;2023-06-10T05:10:06;9.27;;;8.13;;
8252;SDS011;61313;48.396;10.008;2023-06-10T05:12:32;11.30;;;8.53;;
8252;SDS011;61313;48.396;10.008;2023-06-10T05:14:58;17.10;;;9.30;;
8252;SDS011;61313;48.396;10.008;2023-06-10T05:17:23;9.47;;;7.57;;
8252;SDS011;61313;48.396;10.008;2023-06-10T05:19:50;17.50;;;8.63;;
8252;SDS011;61313;48.396;10.008;2023-06-10T05:22:16;17.17;;;8.93;;
8252;SDS011;61313;48.396;10.008;2023-06-10T05:24:43;10.03;;;9.03;;
8252;SDS011;61313;48.396;10.008;2023-06-10T05:27:09;10.80;;;9.10;;
8252;SDS011;61313;48.396;10.008;2023-06-10T05:29:34;8.97;;;8.07;;
8252;SDS011;61313;48.396;10.008;2023-06-10T05:32:00;13.50;;;9.53;;
8252;SDS011;61313;48.396;10.008;2023-06-10T05:34:28;13.33;;;8.60;;
8252;SDS011;61313;48.396;10.008;2023-06-10T05:36:54;9.30;;;8.10;;
8252;SDS011;61313;48.396;10.008;2023-06-10T05:39:20;10.30;;;9.40;;
8252;SDS011;61313;48.396;10.008;2023-06-10T05:41:45;18.27;;;9.40;;
8252;SDS011;61313;48.396;10.008;2023-06-10T05:44:11;9.90;;;8.83;;
8252;SDS011;61313;48.396;10.008;2023-06-10T05:46:37;11.03;;;9.80;;
8252;SDS011;61313;48.396;10.008;2023-06-10T05:49:02;9.43;;;8.57;;
8252;SDS011;61313;48.396;10.008;2023-06-10T05:51:28;10.77;;;9.67;;
8252;SDS011;61313;48.396;10.008;2023-06-10T05:53:53;11.43;;;8.40;;
8252;SDS011;61313;48.396;10.008;2023-06-10T05:56:19;9.87;;;8.87;;
8252;SDS011;61313;48.396;10.008;2023-06-10T05:58:46;8.70;;;7.90;;
8252;SDS011;61313;48.396;10.008;2023-06-10T06:01:11;9.77;;;8.90;;
8252;SDS011;61313;48.396;10.008;2023-06-10T06:03:37;10.33;;;9.27;;
8252;SDS011;61313;48.396;10.008;2023-06-10T06:06:03;16.00;;;8.93;;
8252;SDS011;61313;48.396;10.008;2023-06-10T06:08:29;8.27;;;7.47;;
8252;SDS011;61313;48.396;10.008;2023-06-10T06:10:54;12.67;;;8.67;;
8252;SDS011;61313;48.396;10.008;2023-06-10T06:13:20;9.30;;;8.50;;
8252;SDS011;61313;48.396;10.008;2023-06-10T06:15:45;11.73;;;7.77;;
8252;SDS011;61313;48.396;10.008;2023-06-10T06:18:11;10.00;;;9.00;;
8252;SDS011;61313;48.396;10.008;2023-06-10T06:20:36;15.80;;;9.50;;
8252;SDS011;61313;48.396;10.008;2023-06-10T06:23:01;9.53;;;8.73;;
8252;SDS011;61313;48.396;10.008;2023-06-10T06:25:28;11.57;;;9.07;;
8252;SDS011;61313;48.396;10.008;2023-06-10T06:27:53;15.30;;;9.23;;
8252;SDS011;61313;48.396;10.008;2023-06-10T06:30:19;11.33;;;9.20;;
8252;SDS011;61313;48.396;10.008;2023-06-10T06:32:44;10.70;;;9.60;;
8252;SDS011;61313;48.396;10.008;2023-06-10T06:35:10;11.50;;;9.57;;
8252;SDS011;61313;48.396;10.008;2023-06-10T06:37:35;13.93;;;9.83;;
8252;SDS011;61313;48.396;10.008;2023-06-10T06:40:01;10.23;;;9.23;;
8252;SDS011;61313;48.396;10.008;2023-06-10T06:42:28;38.33;;;10.97;;
8252;SDS011;61313;48.396;10.008;2023-06-10T06:44:53;10.73;;;9.10;;
8252;SDS011;61313;48.396;10.008;2023-06-10T06:47:18;9.67;;;8.67;;
8252;SDS011;61313;48.396;10.008;2023-06-10T06:49:47;15.00;;;9.43;;
8252;SDS011;61313;48.396;10.008;2023-06-10T06:52:13;9.40;;;8.60;;
8252;SDS011;61313;48.396;10.008;2023-06-10T06:54:39;10.40;;;9.33;;
8252;SDS011;61313;48.396;10.008;2023-06-10T06:57:05;10.63;;;8.77;;
8252;SDS011;61313;48.396;10.008;2023-06-10T06:59:32;12.73;;;10.80;;
8252;SDS011;61313;48.396;10.008;2023-06-10T07:01:57;15.20;;;8.40;;
8252;SDS011;61313;48.396;10.008;2023-06-10T07:04:23;10.10;;;9.10;;
8252;SDS011;61313;48.396;10.008;2023-06-10T07:06:48;12.73;;;9.83;;
8252;SDS011;61313;48.396;10.008;2023-06-10T07:09:14;10.93;;;9.80;;
8252;SDS011;61313;48.396;10.008;2023-06-10T07:11:39;14.03;;;9.10;;
8252;SDS011;61313;48.396;10.008;2023-06-10T07:14:05;33.87;;;10.07;;
8252;SDS011;61313;48.396;10.008;2023-06-10T07:16:31;10.57;;;9.57;;
8252;SDS011;61313;48.396;10.008;2023-06-10T07:18:57;11.90;;;9.97;;
8252;SDS011;61313;48.396;10.008;2023-06-10T07:21:22;11.73;;;10.63;;
8252;SDS011;61313;48.396;10.008;2023-06-10T07:23:48;10.90;;;9.47;;
8252;SDS011;61313;48.396;10.008;2023-06-10T07:26:14;11.60;;;9.37;;
8252;SDS011;61313;48.396;10.008;2023-06-10T07:28:40;21.40;;;9.77;;
8252;SDS011;61313;48.396;10.008;2023-06-10T07:31:06;10.77;;;9.67;;
8252;SDS011;61313;48.396;10.008;2023-06-10T07:33:32;10.57;;;9.53;;
8252;SDS011;61313;48.396;10.008;2023-06-10T07:35:58;14.27;;;9.10;;
8252;SDS011;61313;48.396;10.008;2023-06-10T07:38:24;17.00;;;9.00;;
8252;SDS011;61313;48.396;10.008;2023-06-10T07:40:50;10.23;;;8.77;;
8252;SDS011;61313;48.396;10.008;2023-06-10T07:43:15;10.03;;;9.17;;
8252;SDS011;61313;48.396;10.008;2023-06-10T07:45:40;11.33;;;8.90;;
8252;SDS011;61313;48.396;10.008;2023-06-10T07:48:06;10.60;;;8.80;;
8252;SDS011;61313;48.396;10.008;2023-06-10T07:50:32;10.57;;;9.50;;
8252;SDS011;61313;48.396;10.008;2023-06-10T07:52:58;13.70;;;7.93;;
8252;SDS011;61313;48.396;10.008;2023-06-10T07:55:23;13.43;;;10.07;;
8252;SDS011;61313;48.396;10.008;2023-06-10T07:57:50;14.13;;;8.67;;
8252;SDS011;61313;48.396;10.008;2023-06-10T08:00:16;10.30;;;9.20;;
8252;SDS011;61313;48.396;10.008;2023-06-10T08:02:42;11.23;;;9.60;;
8252;SDS011;61313;48.396;10.008;2023-06-10T08:05:07;9.87;;;8.97;;
8252;SDS011;61313;48.396;10.008;2023-06-10T08:07:33;12.70;;;9.63;;
8252;SDS011;61313;48.396;10.008;2023-06-10T08:09:58;15.80;;;9.63;;
8252;SDS011;61313;48.396;10.008;2023-06-10T08:12:23;9.40;;;8.33;;
8252;SDS011;61313;48.396;10.008;2023-06-10T08:14:49;10.67;;;7.93;;
8252;SDS011;61313;48.396;10.008;2023-06-10T08:17:14;12.33;;;8.70;;
8252;SDS011;61313;48.396;10.008;2023-06-10T08:19:40;10.10;;;7.93;;
8252;SDS011;61313;48.396;10.008;2023-06-10T08:22:05;9.43;;;8.53;;
8252;SDS011;61313;48.396;10.008;2023-06-10T08:24:31;15.77;;;8.97;;
8252;SDS011;61313;48.396;10.008;2023-06-10T08:26:56;10.90;;;8.00;;
8252;SDS011;61313;48.396;10.008;2023-06-10T08:29:22;8.97;;;8.17;;
8252;SDS011;61313;48.396;10.008;2023-06-10T08:31:48;8.40;;;7.30;;
8252;SDS011;61313;48.396;10.008;2023-06-10T08:34:14;11.33;;;8.27;;
8252;SDS011;61313;48.396;10.008;2023-06-10T08:36:39;8.80;;;7.80;;
8252;SDS011;61313;48.396;10.008;2023-06-10T08:39:05;10.83;;;7.63;;
8252;SDS011;61313;48.396;10.008;2023-06-10T08:41:30;7.63;;;6.93;;
8252;SDS011;61313;48.396;10.008;2023-06-10T08:44:12;8.57;;;7.77;;
8252;SDS011;61313;48.396;10.008;2023-06-10T08:46:47;16.33;;;9.37;;
8252;SDS011;61313;48.396;10.008;2023-06-10T08:49:17;12.13;;;8.80;;
8252;SDS011;61313;48.396;10.008;2023-06-10T08:51:46;12.50;;;8.20;;
8252;SDS011;61313;48.396;10.008;2023-06-10T08:54:15;8.60;;;7.70;;
8252;SDS011;61313;48.396;10.008;2023-06-10T08:56:45;7.93;;;7.13;;
8252;SDS011;61313;48.396;10.008;2023-06-10T08:59:16;7.80;;;7.10;;
8252;SDS011;61313;48.396;10.008;2023-06-10T09:01:42;8.30;;;7.50;;
8252;SDS011;61313;48.396;10.008;2023-06-10T09:04:08;7.40;;;6.70;;
8252;SDS011;61313;48.396;10.008;2023-06-10T09:06:34;7.70;;;7.00;;
8252;SDS011;61313;48.396;10.008;2023-06-10T09:09:01;11.93;;;7.33;;
8252;SDS011;61313;48.396;10.008;2023-06-10T09:11:27;7.60;;;6.80;;
8252;SDS011;61313;48.396;10.008;2023-06-10T09:13:53;9.73;;;8.00;;
8252;SDS011;61313;48.396;10.008;2023-06-10T09:16:19;13.90;;;7.80;;
8252;SDS011;61313;48.396;10.008;2023-06-10T09:18:44;10.23;;;7.63;;
8252;SDS011;61313;48.396;10.008;2023-06-10T09:21:09;7.73;;;7.03;;
8252;SDS011;61313;48.396;10.008;2023-06-10T09:23:35;9.23;;;7.50;;
8252;SDS011;61313;48.396;10.008;2023-06-10T09:26:02;9.80;;;8.33;;
8252;SDS011;61313;48.396;10.008;2023-06-10T09:28:30;9.00;;;7.97;;
8252;SDS011;61313;48.396;10.008;2023-06-10T09:31:03;8.57;;;7.70;;
8252;SDS011;61313;48.396;10.008;2023-06-10T09:33:30;10.00;;;8.37;;
8252;SDS011;61313;48.396;10.008;2023-06-10T09:35:56;8.30;;;7.50;;
8252;SDS011;61313;48.396;10.008;2023-06-10T09:38:28;13.63;;;8.30;;
8252;SDS011;61313;48.396;10.008;2023-06-10T09:40:55;7.73;;;6.97;;
8252;SDS011;61313;48.396;10.008;2023-06-10T09:43:21;7.33;;;6.73;;
8252;SDS011;61313;48.396;10.008;2023-06-10T09:45:48;13.90;;;7.93;;
8252;SDS011;61313;48.396;10.008;2023-06-10T09:48:14;8.93;;;7.47;;
8252;SDS011;61313;48.396;10.008;2023-06-10T09:50:43;7.50;;;6.90;;
8252;SDS011;61313;48.396;10.008;2023-06-10T09:53:09;7.50;;;6.90;;
8252;SDS011;61313;48.396;10.008;2023-06-10T09:55:37;10.17;;;7.93;;
8252;SDS011;61313;48.396;10.008;2023-06-10T09:58:06;12.57;;;7.80;;
8252;SDS011;61313;48.396;10.008;2023-06-10T10:00:32;8.10;;;7.47;;
8252;SDS011;61313;48.396;10.008;2023-06-10T10:02:58;8.83;;;7.70;;
8252;SDS011;61313;48.396;10.008;2023-06-10T10:05:24;12.90;;;7.57;;
8252;SDS011;61313;48.396;10.008;2023-06-10T10:07:50;14.60;;;7.70;;
8252;SDS011;61313;48.396;10.008;2023-06-10T10:10:17;13.43;;;7.80;;
8252;SDS011;61313;48.396;10.008;2023-06-10T10:12:44;9.43;;;7.60;;
8252;SDS011;61313;48.396;10.008;2023-06-10T10:15:15;8.30;;;6.80;;
8252;SDS011;61313;48.396;10.008;2023-06-10T10:20:34;8.43;;;6.37;;
8252;SDS011;61313;48.396;10.008;2023-06-10T10:23:07;9.93;;;7.00;;
8252;SDS011;61313;48.396;10.008;2023-06-10T10:25:35;8.87;;;7.10;;
8252;SDS011;61313;48.396;10.008;2023-06-10T10:28:12;8.00;;;7.30;;
8252;SDS011;61313;48.396;10.008;2023-06-10T10:30:42;8.27;;;6.93;;
8252;SDS011;61313;48.396;10.008;2023-06-10T10:35:56;6.73;;;6.00;;
8252;SDS011;61313;48.396;10.008;2023-06-10T10:38:23;9.87;;;6.93;;
8252;SDS011;61313;48.396;10.008;2023-06-10T10:40:49;9.60;;;6.43;;
8252;SDS011;61313;48.396;10.008;2023-06-10T10:43:16;7.60;;;6.80;;
8252;SDS011;61313;48.396;10.008;2023-06-10T10:45:44;13.67;;;6.77;;
8252;SDS011;61313;48.396;10.008;2023-06-10T10:48:11;7.17;;;6.57;;
8252;SDS011;61313;48.396;10.008;2023-06-10T10:50:37;8.47;;;6.10;;
8252;SDS011;61313;48.396;10.008;2023-06-10T10:53:04;6.80;;;6.07;;
8252;SDS011;61313;48.396;10.008;2023-06-10T10:55:30;6.30;;;5.70;;
8252;SDS011;61313;48.396;10.008;2023-06-10T10:57:57;6.80;;;6.00;;
8252;SDS011;61313;48.396;10.008;2023-06-10T11:00:33;10.20;;;6.10;;
8252;SDS011;61313;48.396;10.008;2023-06-10T11:05:32;10.10;;;6.70;;
8252;SDS011;61313;48.396;10.008;2023-06-10T11:07:57;8.03;;;7.33;;
8252;SDS011;61313;48.396;10.008;2023-06-10T11:10:30;8.27;;;7.43;;
8252;SDS011;61313;48.396;10.008;2023-06-10T11:12:59;6.70;;;6.10;;
8252;SDS011;61313;48.396;10.008;2023-06-10T11:15:27;6.80;;;6.20;;
8252;SDS011;61313;48.396;10.008;2023-06-10T11:18:09;6.60;;;6.03;;
8252;SDS011;61313;48.396;10.008;2023-06-10T11:23:13;9.00;;;6.93;;
8252;SDS011;61313;48.396;10.008;2023-06-10T11:26:19;6.30;;;5.80;;
8252;SDS011;61313;48.396;10.008;2023-06-10T11:31:25;6.20;;;5.70;;
8252;SDS011;61313;48.396;10.008;2023-06-10T11:33:58;8.07;;;6.73;;
8252;SDS011;61313;48.396;10.008;2023-06-10T11:36:25;6.77;;;6.07;;
8252;SDS011;61313;48.396;10.008;2023-06-10T11:41:24;6.60;;;6.10;;
8252;SDS011;61313;48.396;10.008;2023-06-10T11:43:51;7.27;;;6.20;;
8252;SDS011;61313;48.396;10.008;2023-06-10T11:46:17;7.30;;;5.90;;
8252;SDS011;61313;48.396;10.008;2023-06-10T11:48:49;6.43;;;5.93;;
8252;SDS011;61313;48.396;10.008;2023-06-10T11:51:28;8.67;;;6.07;;
8252;SDS011;61313;48.396;10.008;2023-06-10T11:53:55;7.50;;;6.50;;
8252;SDS011;61313;48.396;10.008;2023-06-10T11:56:21;8.50;;;6.63;;
8252;SDS011;61313;48.396;10.008;2023-06-10T11:58:51;7.60;;;6.90;;
8252;SDS011;61313;48.396;10.008;2023-06-10T12:01:22;9.10;;;6.90;;
8252;SDS011;61313;48.396;10.008;2023-06-10T12:06:47;6.90;;;6.30;;
8252;SDS011;61313;48.396;10.008;2023-06-10T12:09:14;7.30;;;6.70;;
8252;SDS011;61313;48.396;10.008;2023-06-10T12:11:39;7.50;;;6.80;;
8252;SDS011;61313;48.396;10.008;2023-06-10T12:14:05;10.43;;;8.10;;
8252;SDS011;61313;48.396;10.008;2023-06-10T12:16:31;9.30;;;8.00;;
8252;SDS011;61313;48.396;10.008;2023-06-10T12:19:00;11.90;;;7.97;;
8252;SDS011;61313;48.396;10.008;2023-06-10T12:21:28;8.30;;;7.60;;
8252;SDS011;61313;48.396;10.008;2023-06-10T12:23:59;8.77;;;7.43;;
8252;SDS011;61313;48.396;10.008;2023-06-10T12:26:44;7.93;;;7.23;;
8252;SDS011;61313;48.396;10.008;2023-06-10T12:29:19;7.93;;;7.23;;
8252;SDS011;61313;48.396;10.008;2023-06-10T12:32:00;11.70;;;7.57;;
8252;SDS011;61313;48.396;10.008;2023-06-10T12:34:31;7.93;;;7.13;;
8252;SDS011;61313;48.396;10.008;2023-06-10T12:36:58;8.43;;;7.53;;
8252;SDS011;61313;48.396;10.008;2023-06-10T12:39:25;8.80;;;7.30;;
8252;SDS011;61313;48.396;10.008;2023-06-10T12:41:51;9.23;;;7.43;;
8252;SDS011;61313;48.396;10.008;2023-06-10T12:44:17;8.30;;;7.43;;
8252;SDS011;61313;48.396;10.008;2023-06-10T12:46:42;8.53;;;7.73;;
8252;SDS011;61313;48.396;10.008;2023-06-10T12:49:08;8.07;;;7.37;;
8252;SDS011;61313;48.396;10.008;2023-06-10T12:51:33;8.40;;;7.57;;
8252;SDS011;61313;48.396;10.008;2023-06-10T12:54:00;8.83;;;8.07;;
8252;SDS011;61313;48.396;10.008;2023-06-10T12:56:25;8.43;;;7.67;;
8252;SDS011;61313;48.396;10.008;2023-06-10T12:58:51;8.20;;;7.43;;
8252;SDS011;61313;48.396;10.008;2023-06-10T13:01:16;8.87;;;8.17;;
8252;SDS011;61313;48.396;10.008;2023-06-10T13:03:41;13.13;;;8.00;;
8252;SDS011;61313;48.396;10.008;2023-06-10T13:06:07;10.60;;;8.50;;
8252;SDS011;61313;48.396;10.008;2023-06-10T13:08:32;7.90;;;7.30;;
8252;SDS011;61313;48.396;10.008;2023-06-10T13:10:58;14.30;;;7.53;;
8252;SDS011;61313;48.396;10.008;2023-06-10T13:13:23;9.20;;;8.20;;
8252;SDS011;61313;48.396;10.008;2023-06-10T13:15:49;9.33;;;8.43;;
8252;SDS011;61313;48.396;10.008;2023-06-10T13:18:15;9.67;;;7.60;;
8252;SDS011;61313;48.396;10.008;2023-06-10T13:20:42;8.80;;;7.90;;
8252;SDS011;61313;48.396;10.008;2023-06-10T13:23:08;8.80;;;7.90;;
8252;SDS011;61313;48.396;10.008;2023-06-10T13:25:33;8.20;;;7.53;;
8252;SDS011;61313;48.396;10.008;2023-06-10T13:27:59;8.60;;;7.90;;
8252;SDS011;61313;48.396;10.008;2023-06-10T13:30:24;19.53;;;8.40;;
8252;SDS011;61313;48.396;10.008;2023-06-10T13:32:50;9.00;;;7.73;;
8252;SDS011;61313;48.396;10.008;2023-06-10T13:35:15;9.03;;;8.23;;
8252;SDS011;61313;48.396;10.008;2023-06-10T13:37:41;9.00;;;7.50;;
8252;SDS011;61313;48.396;10.008;2023-06-10T13:40:06;7.93;;;7.23;;
8252;SDS011;61313;48.396;10.008;2023-06-10T13:42:32;8.00;;;7.30;;
8252;SDS011;61313;48.396;10.008;2023-06-10T13:44:58;6.50;;;5.90;;
8252;SDS011;61313;48.396;10.008;2023-06-10T13:47:23;6.80;;;6.20;;
8252;SDS011;61313;48.396;10.008;2023-06-10T13:49:49;9.93;;;6.30;;
8252;SDS011;61313;48.396;10.008;2023-06-10T13:52:15;10.60;;;7.10;;
8252;SDS011;61313;48.396;10.008;2023-06-10T13:54:40;12.20;;;6.57;;
8252;SDS011;61313;48.396;10.008;2023-06-10T13:57:05;8.40;;;6.80;;
8252;SDS011;61313;48.396;10.008;2023-06-10T13:59:31;14.43;;;7.40;;
8252;SDS011;61313;48.396;10.008;2023-06-10T14:01:56;7.03;;;6.03;;
8252;SDS011;61313;48.396;10.008;2023-06-10T14:04:22;7.37;;;6.77;;
8252;SDS011;61313;48.396;10.008;2023-06-10T14:06:47;8.23;;;7.43;;
8252;SDS011;61313;48.396;10.008;2023-06-10T14:09:13;8.23;;;7.43;;
8252;SDS011;61313;48.396;10.008;2023-06-10T14:11:39;7.77;;;6.97;;
8252;SDS011;61313;48.396;10.008;2023-06-10T14:14:04;7.70;;;7.10;;
8252;SDS011;61313;48.396;10.008;2023-06-10T14:16:30;7.10;;;6.50;;
8252;SDS011;61313;48.396;10.008;2023-06-10T14:18:55;8.07;;;7.10;;
8252;SDS011;61313;48.396;10.008;2023-06-10T14:21:21;8.80;;;7.30;;
8252;SDS011;61313;48.396;10.008;2023-06-10T14:23:46;7.00;;;6.40;;
8252;SDS011;61313;48.396;10.008;2023-06-10T14:26:13;9.70;;;6.70;;
8252;SDS011;61313;48.396;10.008;2023-06-10T14:28:39;10.43;;;7.60;;
8252;SDS011;61313;48.396;10.008;2023-06-10T14:31:05;8.80;;;8.10;;
8252;SDS011;61313;48.396;10.008;2023-06-10T14:33:30;7.57;;;6.77;;
8252;SDS011;61313;48.396;10.008;2023-06-10T14:35:56;7.70;;;6.80;;
8252;SDS011;61313;48.396;10.008;2023-06-10T14:38:22;8.60;;;6.90;;
8252;SDS011;61313;48.396;10.008;2023-06-10T14:40:48;6.60;;;6.00;;
8252;SDS011;61313;48.396;10.008;2023-06-10T14:43:13;7.27;;;5.97;;
8252;SDS011;61313;48.396;10.008;2023-06-10T14:45:39;8.03;;;5.87;;
8252;SDS011;61313;48.396;10.008;2023-06-10T14:48:05;9.40;;;6.87;;
8252;SDS011;61313;48.396;10.008;2023-06-10T14:50:32;7.87;;;7.07;;
8252;SDS011;61313;48.396;10.008;2023-06-10T14:52:59;7.83;;;7.03;;
8252;SDS011;61313;48.396;10.008;2023-06-10T14:55:24;6.77;;;6.20;;
8252;SDS011;61313;48.396;10.008;2023-06-10T14:57:50;8.30;;;7.50;;
8252;SDS011;61313;48.396;10.008;2023-06-10T15:00:16;11.07;;;7.73;;
8252;SDS011;61313;48.396;10.008;2023-06-10T15:02:45;7.20;;;6.60;;